sensor_id;sensor_type;location;lat;lon;timestamp;temperature;humidity
19847;DHT22;10084;50.518;8.588;2022-12-20T00:00:44;3.90;93.20
19847;DHT22;10084;50.518;8.588;2022-12-20T00:03:10;3.90;93.20
19847;DHT22;10084;50.518;8.588;2022-12-20T00:05:36;3.90;93.20
19847;DHT22;10084;50.518;8.588;2022-12-20T00:08:02;3.90;93.20
19847;DHT22;10084;50.518;8.588;2022-12-20T00:10:28;4.00;93.10
19847;DHT22;10084;50.518;8.588;2022-12-20T00:12:54;4.00;93.10
19847;DHT22;10084;50.518;8.588;2022-12-20T00:15:20;4.00;92.90
19847;DHT22;10084;50.518;8.588;2022-12-20T00:17:46;4.00;93.00
19847;DHT22;10084;50.518;8.588;2022-12-20T00:20:11;4.00;93.10
19847;DHT22;10084;50.518;8.588;2022-12-20T00:22:37;4.00;93.10
19847;DHT22;10084;50.518;8.588;2022-12-20T00:25:04;4.10;93.20
19847;DHT22;10084;50.518;8.588;2022-12-20T00:27:30;4.10;93.10
19847;DHT22;10084;50.518;8.588;2022-12-20T00:29:55;4.10;93.10
19847;DHT22;10084;50.518;8.588;2022-12-20T00:32:21;4.10;93.10
19847;DHT22;10084;50.518;8.588;2022-12-20T00:34:47;4.10;93.00
19847;DHT22;10084;50.518;8.588;2022-12-20T00:37:12;4.10;92.90
19847;DHT22;10084;50.518;8.588;2022-12-20T00:39:38;4.10;92.80
19847;DHT22;10084;50.518;8.588;2022-12-20T00:42:04;4.10;92.80
19847;DHT22;10084;50.518;8.588;2022-12-20T00:44:29;4.10;92.90
19847;DHT22;10084;50.518;8.588;2022-12-20T00:46:55;4.10;93.00
19847;DHT22;10084;50.518;8.588;2022-12-20T00:49:21;4.10;93.00
19847;DHT22;10084;50.518;8.588;2022-12-20T00:51:46;4.10;93.00
19847;DHT22;10084;50.518;8.588;2022-12-20T00:54:12;4.10;93.00
19847;DHT22;10084;50.518;8.588;2022-12-20T00:56:38;4.10;93.10
19847;DHT22;10084;50.518;8.588;2022-12-20T00:59:04;4.10;93.10
19847;DHT22;10084;50.518;8.588;2022-12-20T01:01:31;4.10;93.00
19847;DHT22;10084;50.518;8.588;2022-12-20T01:03:58;4.10;93.00
19847;DHT22;10084;50.518;8.588;2022-12-20T01:06:26;4.10;92.90
19847;DHT22;10084;50.518;8.588;2022-12-20T01:08:53;4.10;93.00
19847;DHT22;10084;50.518;8.588;2022-12-20T01:11:24;4.00;92.90
19847;DHT22;10084;50.518;8.588;2022-12-20T01:13:53;4.00;93.10
19847;DHT22;10084;50.518;8.588;2022-12-20T01:16:24;4.00;93.00
19847;DHT22;10084;50.518;8.588;2022-12-20T01:18:50;4.00;92.80
19847;DHT22;10084;50.518;8.588;2022-12-20T01:21:17;4.00;92.70
19847;DHT22;10084;50.518;8.588;2022-12-20T01:23:43;4.00;92.80
19847;DHT22;10084;50.518;8.588;2022-12-20T01:26:13;4.00;92.90
19847;DHT22;10084;50.518;8.588;2022-12-20T01:28:41;4.00;92.90
19847;DHT22;10084;50.518;8.588;2022-12-20T01:31:09;4.00;92.90
19847;DHT22;10084;50.518;8.588;2022-12-20T01:33:35;3.90;92.90
19847;DHT22;10084;50.518;8.588;2022-12-20T01:36:06;4.00;93.00
19847;DHT22;10084;50.518;8.588;2022-12-20T01:38:33;4.00;93.00
19847;DHT22;10084;50.518;8.588;2022-12-20T01:41:00;4.00;92.90
19847;DHT22;10084;50.518;8.588;2022-12-20T01:46:21;3.90;92.60
19847;DHT22;10084;50.518;8.588;2022-12-20T01:49:09;3.90;92.50
19847;DHT22;10084;50.518;8.588;2022-12-20T01:51:47;3.90;92.50
19847;DHT22;10084;50.518;8.588;2022-12-20T01:54:25;3.80;92.70
19847;DHT22;10084;50.518;8.588;2022-12-20T01:56:57;3.80;92.80
19847;DHT22;10084;50.518;8.588;2022-12-20T01:59:24;3.90;92.70
19847;DHT22;10084;50.518;8.588;2022-12-20T02:01:50;3.80;92.60
19847;DHT22;10084;50.518;8.588;2022-12-20T02:04:16;3.80;92.50
19847;DHT22;10084;50.518;8.588;2022-12-20T02:06:42;3.80;92.50
19847;DHT22;10084;50.518;8.588;2022-12-20T02:09:08;3.70;92.40
19847;DHT22;10084;50.518;8.588;2022-12-20T02:11:45;3.70;92.50
19847;DHT22;10084;50.518;8.588;2022-12-20T02:14:21;3.70;92.70
19847;DHT22;10084;50.518;8.588;2022-12-20T02:19:50;3.70;92.70
19847;DHT22;10084;50.518;8.588;2022-12-20T02:22:47;3.60;92.50
19847;DHT22;10084;50.518;8.588;2022-12-20T02:31:10;3.50;92.60
19847;DHT22;10084;50.518;8.588;2022-12-20T02:33:39;3.40;92.60
19847;DHT22;10084;50.518;8.588;2022-12-20T02:36:06;3.40;92.70
19847;DHT22;10084;50.518;8.588;2022-12-20T02:38:35;3.30;93.00
19847;DHT22;10084;50.518;8.588;2022-12-20T02:41:25;3.30;93.20
19847;DHT22;10084;50.518;8.588;2022-12-20T02:43:55;3.30;93.50
19847;DHT22;10084;50.518;8.588;2022-12-20T02:46:42;3.30;93.50
19847;DHT22;10084;50.518;8.588;2022-12-20T02:49:14;3.30;93.40
19847;DHT22;10084;50.518;8.588;2022-12-20T02:51:43;3.30;93.40
19847;DHT22;10084;50.518;8.588;2022-12-20T02:54:10;3.20;93.40
19847;DHT22;10084;50.518;8.588;2022-12-20T02:56:49;3.20;93.40
19847;DHT22;10084;50.518;8.588;2022-12-20T02:59:28;3.20;93.40
19847;DHT22;10084;50.518;8.588;2022-12-20T03:01:55;3.10;93.40
19847;DHT22;10084;50.518;8.588;2022-12-20T03:04:27;3.10;93.40
19847;DHT22;10084;50.518;8.588;2022-12-20T03:09:24;3.00;93.60
19847;DHT22;10084;50.518;8.588;2022-12-20T03:11:50;3.00;93.80
19847;DHT22;10084;50.518;8.588;2022-12-20T03:14:17;3.00;94.10
19847;DHT22;10084;50.518;8.588;2022-12-20T03:16:44;3.00;94.30
19847;DHT22;10084;50.518;8.588;2022-12-20T03:19:10;3.10;94.30
19847;DHT22;10084;50.518;8.588;2022-12-20T03:21:36;3.10;94.20
19847;DHT22;10084;50.518;8.588;2022-12-20T03:24:02;3.10;94.10
19847;DHT22;10084;50.518;8.588;2022-12-20T03:26:28;3.10;93.90
19847;DHT22;10084;50.518;8.588;2022-12-20T03:28:57;3.10;93.90
19847;DHT22;10084;50.518;8.588;2022-12-20T03:31:25;3.20;94.10
19847;DHT22;10084;50.518;8.588;2022-12-20T03:33:53;3.20;94.20
19847;DHT22;10084;50.518;8.588;2022-12-20T03:36:20;3.20;94.30
19847;DHT22;10084;50.518;8.588;2022-12-20T03:38:50;3.30;94.20
19847;DHT22;10084;50.518;8.588;2022-12-20T03:41:17;3.30;94.10
19847;DHT22;10084;50.518;8.588;2022-12-20T03:43:42;3.40;94.00
19847;DHT22;10084;50.518;8.588;2022-12-20T03:46:08;3.40;93.90
19847;DHT22;10084;50.518;8.588;2022-12-20T03:48:37;3.40;93.80
19847;DHT22;10084;50.518;8.588;2022-12-20T03:51:03;3.40;93.70
19847;DHT22;10084;50.518;8.588;2022-12-20T03:53:29;3.50;93.80
19847;DHT22;10084;50.518;8.588;2022-12-20T03:55:56;3.50;93.80
19847;DHT22;10084;50.518;8.588;2022-12-20T03:58:22;3.50;93.70
19847;DHT22;10084;50.518;8.588;2022-12-20T04:00:48;3.50;93.70
19847;DHT22;10084;50.518;8.588;2022-12-20T04:03:34;3.50;93.80
19847;DHT22;10084;50.518;8.588;2022-12-20T04:06:00;3.60;93.80
19847;DHT22;10084;50.518;8.588;2022-12-20T04:08:26;3.60;93.80
19847;DHT22;10084;50.518;8.588;2022-12-20T04:10:52;3.60;93.80
19847;DHT22;10084;50.518;8.588;2022-12-20T04:13:53;3.70;93.70
19847;DHT22;10084;50.518;8.588;2022-12-20T04:16:24;3.70;93.60
19847;DHT22;10084;50.518;8.588;2022-12-20T04:18:51;3.70;93.50
19847;DHT22;10084;50.518;8.588;2022-12-20T04:21:23;3.70;93.50
19847;DHT22;10084;50.518;8.588;2022-12-20T04:23:50;3.70;93.50
19847;DHT22;10084;50.518;8.588;2022-12-20T04:26:16;3.70;93.50
19847;DHT22;10084;50.518;8.588;2022-12-20T04:28:42;3.70;93.50
19847;DHT22;10084;50.518;8.588;2022-12-20T04:31:09;3.70;93.60
19847;DHT22;10084;50.518;8.588;2022-12-20T04:33:36;3.70;93.70
19847;DHT22;10084;50.518;8.588;2022-12-20T04:36:02;3.80;93.80
19847;DHT22;10084;50.518;8.588;2022-12-20T04:38:29;3.80;93.80
19847;DHT22;10084;50.518;8.588;2022-12-20T04:40:56;3.80;93.80
19847;DHT22;10084;50.518;8.588;2022-12-20T04:43:23;3.90;93.70
19847;DHT22;10084;50.518;8.588;2022-12-20T04:45:54;3.90;93.60
19847;DHT22;10084;50.518;8.588;2022-12-20T04:48:25;3.90;93.60
19847;DHT22;10084;50.518;8.588;2022-12-20T04:50:53;4.00;93.60
19847;DHT22;10084;50.518;8.588;2022-12-20T04:53:20;4.00;93.50
19847;DHT22;10084;50.518;8.588;2022-12-20T04:56:05;4.00;93.60
19847;DHT22;10084;50.518;8.588;2022-12-20T04:58:31;4.00;93.80
19847;DHT22;10084;50.518;8.588;2022-12-20T05:00:58;4.00;93.40
19847;DHT22;10084;50.518;8.588;2022-12-20T05:03:27;4.00;93.30
19847;DHT22;10084;50.518;8.588;2022-12-20T05:05:54;4.00;93.30
19847;DHT22;10084;50.518;8.588;2022-12-20T05:08:20;4.10;93.30
19847;DHT22;10084;50.518;8.588;2022-12-20T05:10:49;4.10;93.30
19847;DHT22;10084;50.518;8.588;2022-12-20T05:13:15;4.10;93.20
19847;DHT22;10084;50.518;8.588;2022-12-20T05:15:43;4.10;93.10
19847;DHT22;10084;50.518;8.588;2022-12-20T05:18:09;4.10;93.20
19847;DHT22;10084;50.518;8.588;2022-12-20T05:20:57;4.10;93.30
19847;DHT22;10084;50.518;8.588;2022-12-20T05:23:45;4.10;93.30
19847;DHT22;10084;50.518;8.588;2022-12-20T05:26:35;4.10;93.30
19847;DHT22;10084;50.518;8.588;2022-12-20T05:29:03;4.10;93.30
19847;DHT22;10084;50.518;8.588;2022-12-20T05:31:29;4.10;93.20
19847;DHT22;10084;50.518;8.588;2022-12-20T05:33:57;4.10;93.20
19847;DHT22;10084;50.518;8.588;2022-12-20T05:36:26;4.10;93.20
19847;DHT22;10084;50.518;8.588;2022-12-20T05:38:54;4.10;93.10
19847;DHT22;10084;50.518;8.588;2022-12-20T05:41:20;4.10;93.10
19847;DHT22;10084;50.518;8.588;2022-12-20T05:43:49;4.10;93.00
19847;DHT22;10084;50.518;8.588;2022-12-20T05:46:16;4.10;93.00
19847;DHT22;10084;50.518;8.588;2022-12-20T05:48:51;4.10;93.20
19847;DHT22;10084;50.518;8.588;2022-12-20T05:51:17;4.00;93.20
19847;DHT22;10084;50.518;8.588;2022-12-20T05:53:54;4.00;93.20
19847;DHT22;10084;50.518;8.588;2022-12-20T05:56:29;4.00;93.20
19847;DHT22;10084;50.518;8.588;2022-12-20T05:58:55;4.00;93.20
19847;DHT22;10084;50.518;8.588;2022-12-20T06:01:22;4.00;93.20
19847;DHT22;10084;50.518;8.588;2022-12-20T06:03:49;4.00;93.60
19847;DHT22;10084;50.518;8.588;2022-12-20T06:06:16;4.00;93.30
19847;DHT22;10084;50.518;8.588;2022-12-20T06:08:45;4.00;93.40
19847;DHT22;10084;50.518;8.588;2022-12-20T06:11:16;4.00;93.50
19847;DHT22;10084;50.518;8.588;2022-12-20T06:13:50;4.00;93.50
19847;DHT22;10084;50.518;8.588;2022-12-20T06:16:17;4.00;93.70
19847;DHT22;10084;50.518;8.588;2022-12-20T06:18:45;4.00;93.30
19847;DHT22;10084;50.518;8.588;2022-12-20T06:21:12;4.00;93.40
19847;DHT22;10084;50.518;8.588;2022-12-20T06:23:38;4.00;93.50
19847;DHT22;10084;50.518;8.588;2022-12-20T06:26:09;4.00;93.40
19847;DHT22;10084;50.518;8.588;2022-12-20T06:28:44;4.00;93.40
19847;DHT22;10084;50.518;8.588;2022-12-20T06:31:10;4.00;93.40
19847;DHT22;10084;50.518;8.588;2022-12-20T06:33:42;3.90;93.40
19847;DHT22;10084;50.518;8.588;2022-12-20T06:36:07;4.00;93.50
19847;DHT22;10084;50.518;8.588;2022-12-20T06:38:33;4.00;93.60
19847;DHT22;10084;50.518;8.588;2022-12-20T06:40:59;4.00;93.70
19847;DHT22;10084;50.518;8.588;2022-12-20T06:43:25;4.00;93.80
19847;DHT22;10084;50.518;8.588;2022-12-20T06:45:51;4.00;93.80
19847;DHT22;10084;50.518;8.588;2022-12-20T06:48:17;4.00;93.80
19847;DHT22;10084;50.518;8.588;2022-12-20T06:50:43;4.10;94.00
19847;DHT22;10084;50.518;8.588;2022-12-20T06:53:09;4.10;94.10
19847;DHT22;10084;50.518;8.588;2022-12-20T06:55:35;4.20;94.30
19847;DHT22;10084;50.518;8.588;2022-12-20T06:58:02;4.20;94.40
19847;DHT22;10084;50.518;8.588;2022-12-20T07:00:28;4.30;94.40
19847;DHT22;10084;50.518;8.588;2022-12-20T07:02:53;4.40;94.40
19847;DHT22;10084;50.518;8.588;2022-12-20T07:05:19;4.40;94.30
19847;DHT22;10084;50.518;8.588;2022-12-20T07:07:45;4.50;94.20
19847;DHT22;10084;50.518;8.588;2022-12-20T07:10:11;4.60;94.10
19847;DHT22;10084;50.518;8.588;2022-12-20T07:12:36;4.60;94.10
19847;DHT22;10084;50.518;8.588;2022-12-20T07:15:02;4.70;94.10
19847;DHT22;10084;50.518;8.588;2022-12-20T07:17:28;4.70;94.10
19847;DHT22;10084;50.518;8.588;2022-12-20T07:19:54;4.80;94.00
19847;DHT22;10084;50.518;8.588;2022-12-20T07:22:19;4.80;94.00
19847;DHT22;10084;50.518;8.588;2022-12-20T07:24:45;4.80;93.90
19847;DHT22;10084;50.518;8.588;2022-12-20T07:27:12;4.90;93.70
19847;DHT22;10084;50.518;8.588;2022-12-20T07:29:38;4.90;93.50
19847;DHT22;10084;50.518;8.588;2022-12-20T07:32:06;4.90;93.50
19847;DHT22;10084;50.518;8.588;2022-12-20T07:34:32;4.90;93.30
19847;DHT22;10084;50.518;8.588;2022-12-20T07:36:58;4.90;93.10
19847;DHT22;10084;50.518;8.588;2022-12-20T07:39:24;4.80;93.00
19847;DHT22;10084;50.518;8.588;2022-12-20T07:41:53;4.80;93.10
19847;DHT22;10084;50.518;8.588;2022-12-20T07:44:21;4.80;93.00
19847;DHT22;10084;50.518;8.588;2022-12-20T07:46:48;4.80;93.20
19847;DHT22;10084;50.518;8.588;2022-12-20T07:49:13;4.80;93.30
19847;DHT22;10084;50.518;8.588;2022-12-20T07:51:44;4.80;93.80
19847;DHT22;10084;50.518;8.588;2022-12-20T07:54:20;4.80;93.60
19847;DHT22;10084;50.518;8.588;2022-12-20T07:56:50;4.80;93.50
19847;DHT22;10084;50.518;8.588;2022-12-20T07:59:21;4.80;93.60
19847;DHT22;10084;50.518;8.588;2022-12-20T08:01:48;4.80;93.80
19847;DHT22;10084;50.518;8.588;2022-12-20T08:04:18;4.80;94.00
19847;DHT22;10084;50.518;8.588;2022-12-20T08:06:45;4.90;94.00
19847;DHT22;10084;50.518;8.588;2022-12-20T08:09:13;4.90;94.10
19847;DHT22;10084;50.518;8.588;2022-12-20T08:11:42;4.90;94.10
19847;DHT22;10084;50.518;8.588;2022-12-20T08:14:09;5.00;94.10
19847;DHT22;10084;50.518;8.588;2022-12-20T08:16:35;5.00;94.00
19847;DHT22;10084;50.518;8.588;2022-12-20T08:19:01;5.00;94.00
19847;DHT22;10084;50.518;8.588;2022-12-20T08:21:26;5.10;94.00
19847;DHT22;10084;50.518;8.588;2022-12-20T08:23:53;5.10;94.00
19847;DHT22;10084;50.518;8.588;2022-12-20T08:26:19;5.10;93.70
19847;DHT22;10084;50.518;8.588;2022-12-20T08:28:45;5.10;93.60
19847;DHT22;10084;50.518;8.588;2022-12-20T08:31:11;5.10;93.50
19847;DHT22;10084;50.518;8.588;2022-12-20T08:33:37;5.10;93.40
19847;DHT22;10084;50.518;8.588;2022-12-20T08:36:07;5.10;93.40
19847;DHT22;10084;50.518;8.588;2022-12-20T08:38:33;5.10;93.20
19847;DHT22;10084;50.518;8.588;2022-12-20T08:41:05;5.10;93.40
19847;DHT22;10084;50.518;8.588;2022-12-20T08:43:32;5.20;93.70
19847;DHT22;10084;50.518;8.588;2022-12-20T08:45:59;5.20;94.20
19847;DHT22;10084;50.518;8.588;2022-12-20T08:48:25;5.30;94.50
19847;DHT22;10084;50.518;8.588;2022-12-20T08:51:00;5.40;94.80
19847;DHT22;10084;50.518;8.588;2022-12-20T08:53:27;5.50;94.80
19847;DHT22;10084;50.518;8.588;2022-12-20T08:56:01;5.60;95.00
19847;DHT22;10084;50.518;8.588;2022-12-20T08:58:27;5.70;95.10
19847;DHT22;10084;50.518;8.588;2022-12-20T09:00:52;5.80;95.30
19847;DHT22;10084;50.518;8.588;2022-12-20T09:03:18;6.00;95.40
19847;DHT22;10084;50.518;8.588;2022-12-20T09:05:45;6.20;95.10
19847;DHT22;10084;50.518;8.588;2022-12-20T09:08:14;6.30;94.80
19847;DHT22;10084;50.518;8.588;2022-12-20T09:10:41;6.50;94.60
19847;DHT22;10084;50.518;8.588;2022-12-20T09:13:08;6.60;94.50
19847;DHT22;10084;50.518;8.588;2022-12-20T09:15:35;6.80;94.20
19847;DHT22;10084;50.518;8.588;2022-12-20T09:18:01;6.80;93.90
19847;DHT22;10084;50.518;8.588;2022-12-20T09:20:27;6.90;93.50
19847;DHT22;10084;50.518;8.588;2022-12-20T09:22:53;7.00;93.40
19847;DHT22;10084;50.518;8.588;2022-12-20T09:25:19;7.00;93.30
19847;DHT22;10084;50.518;8.588;2022-12-20T09:27:44;7.00;93.20
19847;DHT22;10084;50.518;8.588;2022-12-20T09:30:10;7.00;93.00
19847;DHT22;10084;50.518;8.588;2022-12-20T09:32:36;7.00;92.80
19847;DHT22;10084;50.518;8.588;2022-12-20T09:35:03;7.00;92.70
19847;DHT22;10084;50.518;8.588;2022-12-20T09:37:30;6.90;92.50
19847;DHT22;10084;50.518;8.588;2022-12-20T09:39:57;6.90;92.70
19847;DHT22;10084;50.518;8.588;2022-12-20T09:42:26;6.90;93.00
19847;DHT22;10084;50.518;8.588;2022-12-20T09:45:05;6.90;93.20
19847;DHT22;10084;50.518;8.588;2022-12-20T09:47:34;7.00;93.40
19847;DHT22;10084;50.518;8.588;2022-12-20T09:50:02;7.00;93.10
19847;DHT22;10084;50.518;8.588;2022-12-20T09:55:33;7.10;93.10
19847;DHT22;10084;50.518;8.588;2022-12-20T09:58:30;7.00;92.70
19847;DHT22;10084;50.518;8.588;2022-12-20T10:01:15;7.00;92.70
19847;DHT22;10084;50.518;8.588;2022-12-20T10:03:41;7.00;92.60
19847;DHT22;10084;50.518;8.588;2022-12-20T10:06:21;7.00;92.40
19847;DHT22;10084;50.518;8.588;2022-12-20T10:08:56;6.90;92.30
19847;DHT22;10084;50.518;8.588;2022-12-20T10:17:15;6.90;92.50
19847;DHT22;10084;50.518;8.588;2022-12-20T10:20:07;6.80;92.40
19847;DHT22;10084;50.518;8.588;2022-12-20T10:22:56;6.80;92.50
19847;DHT22;10084;50.518;8.588;2022-12-20T10:25:29;6.80;92.80
19847;DHT22;10084;50.518;8.588;2022-12-20T10:27:55;6.80;93.00
19847;DHT22;10084;50.518;8.588;2022-12-20T10:30:24;6.80;93.00
19847;DHT22;10084;50.518;8.588;2022-12-20T10:32:54;6.90;93.20
19847;DHT22;10084;50.518;8.588;2022-12-20T10:35:29;7.00;93.10
19847;DHT22;10084;50.518;8.588;2022-12-20T10:38:10;7.00;92.90
19847;DHT22;10084;50.518;8.588;2022-12-20T10:40:44;7.00;92.90
19847;DHT22;10084;50.518;8.588;2022-12-20T10:43:21;7.10;93.10
19847;DHT22;10084;50.518;8.588;2022-12-20T10:46:05;7.10;93.20
19847;DHT22;10084;50.518;8.588;2022-12-20T10:48:37;7.20;93.40
19847;DHT22;10084;50.518;8.588;2022-12-20T10:51:13;7.30;93.30
19847;DHT22;10084;50.518;8.588;2022-12-20T10:54:00;7.40;93.00
19847;DHT22;10084;50.518;8.588;2022-12-20T10:56:28;7.50;92.60
19847;DHT22;10084;50.518;8.588;2022-12-20T10:58:59;7.40;92.10
19847;DHT22;10084;50.518;8.588;2022-12-20T11:01:34;7.50;92.20
19847;DHT22;10084;50.518;8.588;2022-12-20T11:04:05;7.50;92.30
19847;DHT22;10084;50.518;8.588;2022-12-20T11:11:57;7.60;92.60
19847;DHT22;10084;50.518;8.588;2022-12-20T11:14:23;7.70;92.70
19847;DHT22;10084;50.518;8.588;2022-12-20T11:16:51;7.80;92.90
19847;DHT22;10084;50.518;8.588;2022-12-20T11:30:46;8.30;91.90
19847;DHT22;10084;50.518;8.588;2022-12-20T11:33:40;8.40;91.80
19847;DHT22;10084;50.518;8.588;2022-12-20T11:36:37;8.40;91.50
19847;DHT22;10084;50.518;8.588;2022-12-20T11:42:04;8.40;91.40
19847;DHT22;10084;50.518;8.588;2022-12-20T11:44:52;8.30;91.40
19847;DHT22;10084;50.518;8.588;2022-12-20T11:55:44;7.90;90.60
19847;DHT22;10084;50.518;8.588;2022-12-20T11:58:15;7.80;90.70
19847;DHT22;10084;50.518;8.588;2022-12-20T12:00:51;7.70;91.00
19847;DHT22;10084;50.518;8.588;2022-12-20T12:03:32;7.70;91.20
19847;DHT22;10084;50.518;8.588;2022-12-20T12:06:20;7.70;91.10
19847;DHT22;10084;50.518;8.588;2022-12-20T12:09:07;7.60;91.20
19847;DHT22;10084;50.518;8.588;2022-12-20T12:11:39;7.60;91.30
19847;DHT22;10084;50.518;8.588;2022-12-20T12:14:14;7.60;91.40
19847;DHT22;10084;50.518;8.588;2022-12-20T12:16:44;7.70;91.70
19847;DHT22;10084;50.518;8.588;2022-12-20T12:19:12;7.80;91.80
19847;DHT22;10084;50.518;8.588;2022-12-20T12:21:39;7.80;91.70
19847;DHT22;10084;50.518;8.588;2022-12-20T12:24:28;7.90;91.50
19847;DHT22;10084;50.518;8.588;2022-12-20T12:26:57;7.80;90.80
19847;DHT22;10084;50.518;8.588;2022-12-20T12:29:23;7.80;90.60
19847;DHT22;10084;50.518;8.588;2022-12-20T12:32:25;7.70;90.40
19847;DHT22;10084;50.518;8.588;2022-12-20T12:35:29;7.70;90.70
19847;DHT22;10084;50.518;8.588;2022-12-20T12:38:15;7.70;90.80
19847;DHT22;10084;50.518;8.588;2022-12-20T12:43:53;7.70;90.90
19847;DHT22;10084;50.518;8.588;2022-12-20T12:46:29;7.90;91.70
19847;DHT22;10084;50.518;8.588;2022-12-20T12:49:10;8.10;91.50
19847;DHT22;10084;50.518;8.588;2022-12-20T12:51:39;8.30;92.00
19847;DHT22;10084;50.518;8.588;2022-12-20T12:56:40;8.90;90.80
19847;DHT22;10084;50.518;8.588;2022-12-20T13:01:52;9.00;90.20
19847;DHT22;10084;50.518;8.588;2022-12-20T13:04:54;9.00;89.70
19847;DHT22;10084;50.518;8.588;2022-12-20T13:07:29;8.90;89.10
19847;DHT22;10084;50.518;8.588;2022-12-20T13:17:50;8.40;89.10
19847;DHT22;10084;50.518;8.588;2022-12-20T13:25:46;8.20;90.00
19847;DHT22;10084;50.518;8.588;2022-12-20T13:30:44;8.10;89.80
19847;DHT22;10084;50.518;8.588;2022-12-20T13:33:22;8.10;89.90
19847;DHT22;10084;50.518;8.588;2022-12-20T13:38:36;8.00;90.40
19847;DHT22;10084;50.518;8.588;2022-12-20T13:41:14;8.00;90.30
19847;DHT22;10084;50.518;8.588;2022-12-20T13:43:45;8.00;90.10
19847;DHT22;10084;50.518;8.588;2022-12-20T13:46:23;7.90;90.20
19847;DHT22;10084;50.518;8.588;2022-12-20T13:49:01;7.80;90.30
19847;DHT22;10084;50.518;8.588;2022-12-20T13:51:28;7.80;90.30
19847;DHT22;10084;50.518;8.588;2022-12-20T13:53:57;7.70;90.20
19847;DHT22;10084;50.518;8.588;2022-12-20T13:58:53;7.70;90.30
19847;DHT22;10084;50.518;8.588;2022-12-20T14:01:22;7.60;90.20
19847;DHT22;10084;50.518;8.588;2022-12-20T14:03:48;7.60;90.10
19847;DHT22;10084;50.518;8.588;2022-12-20T14:06:17;7.50;89.60
19847;DHT22;10084;50.518;8.588;2022-12-20T14:08:48;7.40;89.40
19847;DHT22;10084;50.518;8.588;2022-12-20T14:11:23;7.30;89.50
19847;DHT22;10084;50.518;8.588;2022-12-20T14:13:54;7.20;89.70
19847;DHT22;10084;50.518;8.588;2022-12-20T14:16:22;7.10;89.80
19847;DHT22;10084;50.518;8.588;2022-12-20T14:19:12;7.00;89.90
19847;DHT22;10084;50.518;8.588;2022-12-20T14:21:41;7.00;90.10
19847;DHT22;10084;50.518;8.588;2022-12-20T14:24:16;6.90;90.30
19847;DHT22;10084;50.518;8.588;2022-12-20T14:26:46;6.90;90.50
19847;DHT22;10084;50.518;8.588;2022-12-20T14:29:27;6.90;90.60
19847;DHT22;10084;50.518;8.588;2022-12-20T14:31:53;6.80;90.60
19847;DHT22;10084;50.518;8.588;2022-12-20T14:34:23;6.80;90.50
19847;DHT22;10084;50.518;8.588;2022-12-20T14:36:50;6.80;90.50
19847;DHT22;10084;50.518;8.588;2022-12-20T14:39:28;6.70;90.40
19847;DHT22;10084;50.518;8.588;2022-12-20T14:44:33;6.60;90.60
19847;DHT22;10084;50.518;8.588;2022-12-20T14:47:24;6.60;90.80
19847;DHT22;10084;50.518;8.588;2022-12-20T14:50:01;6.60;91.20
19847;DHT22;10084;50.518;8.588;2022-12-20T14:52:36;6.60;91.40
19847;DHT22;10084;50.518;8.588;2022-12-20T14:55:15;6.70;91.70
19847;DHT22;10084;50.518;8.588;2022-12-20T14:57:45;6.70;91.90
19847;DHT22;10084;50.518;8.588;2022-12-20T15:02:47;6.80;92.00
19847;DHT22;10084;50.518;8.588;2022-12-20T15:08:27;6.90;92.00
19847;DHT22;10084;50.518;8.588;2022-12-20T15:11:00;6.90;91.90
19847;DHT22;10084;50.518;8.588;2022-12-20T15:13:39;6.90;91.70
19847;DHT22;10084;50.518;8.588;2022-12-20T15:16:15;6.90;91.60
19847;DHT22;10084;50.518;8.588;2022-12-20T15:18:41;6.90;91.60
19847;DHT22;10084;50.518;8.588;2022-12-20T15:23:50;6.80;91.40
19847;DHT22;10084;50.518;8.588;2022-12-20T15:26:18;6.70;91.20
19847;DHT22;10084;50.518;8.588;2022-12-20T15:28:44;6.60;91.20
19847;DHT22;10084;50.518;8.588;2022-12-20T15:31:14;6.60;91.50
19847;DHT22;10084;50.518;8.588;2022-12-20T15:33:42;6.60;91.80
19847;DHT22;10084;50.518;8.588;2022-12-20T15:36:22;6.60;92.00
19847;DHT22;10084;50.518;8.588;2022-12-20T15:38:48;6.60;92.20
19847;DHT22;10084;50.518;8.588;2022-12-20T15:41:27;6.60;92.30
19847;DHT22;10084;50.518;8.588;2022-12-20T15:43:59;6.70;92.50
19847;DHT22;10084;50.518;8.588;2022-12-20T15:46:25;6.70;92.60
19847;DHT22;10084;50.518;8.588;2022-12-20T15:48:52;6.70;92.50
19847;DHT22;10084;50.518;8.588;2022-12-20T15:53:50;6.70;92.50
19847;DHT22;10084;50.518;8.588;2022-12-20T15:56:18;6.80;92.50
19847;DHT22;10084;50.518;8.588;2022-12-20T15:58:46;6.80;92.50
19847;DHT22;10084;50.518;8.588;2022-12-20T16:01:21;6.80;92.50
19847;DHT22;10084;50.518;8.588;2022-12-20T16:03:48;6.80;92.50
19847;DHT22;10084;50.518;8.588;2022-12-20T16:06:14;6.80;92.60
19847;DHT22;10084;50.518;8.588;2022-12-20T16:08:40;6.80;92.50
19847;DHT22;10084;50.518;8.588;2022-12-20T16:11:18;6.80;92.30
19847;DHT22;10084;50.518;8.588;2022-12-20T16:13:44;6.80;92.20
19847;DHT22;10084;50.518;8.588;2022-12-20T16:16:20;6.80;92.20
19847;DHT22;10084;50.518;8.588;2022-12-20T16:18:47;6.80;92.00
19847;DHT22;10084;50.518;8.588;2022-12-20T16:21:17;6.80;92.10
19847;DHT22;10084;50.518;8.588;2022-12-20T16:23:44;6.80;92.20
19847;DHT22;10084;50.518;8.588;2022-12-20T16:26:12;6.80;92.20
19847;DHT22;10084;50.518;8.588;2022-12-20T16:28:38;6.80;92.00
19847;DHT22;10084;50.518;8.588;2022-12-20T16:31:25;6.80;91.80
19847;DHT22;10084;50.518;8.588;2022-12-20T16:33:53;6.70;91.60
19847;DHT22;10084;50.518;8.588;2022-12-20T16:36:20;6.60;91.40
19847;DHT22;10084;50.518;8.588;2022-12-20T16:38:47;6.60;91.40
19847;DHT22;10084;50.518;8.588;2022-12-20T16:41:16;6.50;91.60
19847;DHT22;10084;50.518;8.588;2022-12-20T16:43:42;6.50;91.90
19847;DHT22;10084;50.518;8.588;2022-12-20T16:46:13;6.50;92.20
19847;DHT22;10084;50.518;8.588;2022-12-20T16:48:40;6.50;92.40
19847;DHT22;10084;50.518;8.588;2022-12-20T16:51:31;6.50;92.50
19847;DHT22;10084;50.518;8.588;2022-12-20T16:54:06;6.60;92.50
19847;DHT22;10084;50.518;8.588;2022-12-20T16:56:33;6.60;92.40
19847;DHT22;10084;50.518;8.588;2022-12-20T16:58:59;6.60;92.40
19847;DHT22;10084;50.518;8.588;2022-12-20T17:01:34;6.60;92.40
19847;DHT22;10084;50.518;8.588;2022-12-20T17:04:00;6.60;92.30
19847;DHT22;10084;50.518;8.588;2022-12-20T17:06:27;6.60;92.10
19847;DHT22;10084;50.518;8.588;2022-12-20T17:08:53;6.60;92.00
19847;DHT22;10084;50.518;8.588;2022-12-20T17:11:27;6.60;92.00
19847;DHT22;10084;50.518;8.588;2022-12-20T17:13:55;6.60;92.10
19847;DHT22;10084;50.518;8.588;2022-12-20T17:16:22;6.60;92.20
19847;DHT22;10084;50.518;8.588;2022-12-20T17:18:50;6.50;92.30
19847;DHT22;10084;50.518;8.588;2022-12-20T17:21:20;6.60;92.50
19847;DHT22;10084;50.518;8.588;2022-12-20T17:23:47;6.60;92.50
19847;DHT22;10084;50.518;8.588;2022-12-20T17:26:16;6.60;92.50
19847;DHT22;10084;50.518;8.588;2022-12-20T17:28:42;6.60;92.50
19847;DHT22;10084;50.518;8.588;2022-12-20T17:33:47;6.60;92.50
19847;DHT22;10084;50.518;8.588;2022-12-20T17:36:13;6.60;92.40
19847;DHT22;10084;50.518;8.588;2022-12-20T17:38:38;6.50;92.40
19847;DHT22;10084;50.518;8.588;2022-12-20T17:41:04;6.60;92.50